createdAt,value
2022-12-03T00:02:15.423Z,70.60
2022-12-03T00:04:46.330Z,70.71
2022-12-03T00:07:17.353Z,70.38
2022-12-03T00:09:48.009Z,70.41
2022-12-03T00:12:18.248Z,68.97
2022-12-03T00:14:48.928Z,68.23
2022-12-03T00:17:19.807Z,68.40
2022-12-03T00:19:50.306Z,68.26
2022-12-03T00:22:20.809Z,67.94
2022-12-03T00:24:51.832Z,67.73
2022-12-03T00:27:23.034Z,67.03
2022-12-03T00:29:56.182Z,67.17
2022-12-03T00:32:27.040Z,66.34
2022-12-03T00:34:57.895Z,66.40
2022-12-03T00:37:29.363Z,66.30
2022-12-03T00:40:00.429Z,65.85
2022-12-03T00:42:30.649Z,65.63
2022-12-03T00:45:01.833Z,65.22
2022-12-03T00:47:32.974Z,65.88
2022-12-03T00:50:03.871Z,65.86
2022-12-03T00:52:34.955Z,65.40
2022-12-03T00:55:05.469Z,65.29
2022-12-03T00:57:38.458Z,64.72
2022-12-03T01:00:09.877Z,65.08
2022-12-03T01:02:41.872Z,64.92
2022-12-03T01:05:12.244Z,64.68
2022-12-03T01:07:43.211Z,64.70
2022-12-03T01:10:16.113Z,63.92
2022-12-03T01:12:47.520Z,64.15
2022-12-03T01:15:17.870Z,63.97
2022-12-03T01:17:48.261Z,63.41
2022-12-03T01:20:18.856Z,63.56
2022-12-03T01:22:49.357Z,62.84
2022-12-03T01:25:19.755Z,62.28
2022-12-03T01:27:50.159Z,62.05
2022-12-03T01:30:20.799Z,61.15
2022-12-03T01:32:51.173Z,60.29
2022-12-03T01:35:21.627Z,59.67
2022-12-03T01:37:52.499Z,59.17
2022-12-03T01:40:23.820Z,58.81
2022-12-03T01:42:55.556Z,58.31
2022-12-03T01:45:26.226Z,57.70
2022-12-03T01:47:56.740Z,57.86
2022-12-03T01:50:34.874Z,57.52
2022-12-03T01:53:05.926Z,57.03
2022-12-03T01:55:36.650Z,57.06
2022-12-03T01:58:07.305Z,56.65
2022-12-03T02:00:37.997Z,56.24
2022-12-03T02:03:20.238Z,56.27
2022-12-03T02:05:50.703Z,55.62
2022-12-03T02:08:30.843Z,55.60
2022-12-03T02:11:07.420Z,55.49
2022-12-03T02:13:38.275Z,55.03
2022-12-03T02:16:09.880Z,55.32
2022-12-03T02:18:40.811Z,55.10
2022-12-03T02:21:26.878Z,54.78
2022-12-03T02:24:55.494Z,54.53
2022-12-03T02:27:26.525Z,53.73
2022-12-03T02:29:57.172Z,53.75
2022-12-03T02:32:28.053Z,53.20
2022-12-03T02:34:58.625Z,53.00
2022-12-03T02:37:34.055Z,52.91
2022-12-03T02:40:08.542Z,53.42
2022-12-03T02:42:43.225Z,53.04
2022-12-03T02:45:20.037Z,53.63
2022-12-03T02:48:08.643Z,53.53
2022-12-03T02:50:42.175Z,53.18
2022-12-03T02:53:19.278Z,53.01
2022-12-03T02:55:51.062Z,53.12
2022-12-03T02:58:23.576Z,52.95
2022-12-03T03:00:56.080Z,52.86
2022-12-03T03:03:29.969Z,52.41
2022-12-03T03:06:02.416Z,52.37
2022-12-03T03:08:33.008Z,52.37
2022-12-03T03:11:06.447Z,51.69
2022-12-03T03:13:37.304Z,51.66
2022-12-03T03:16:09.082Z,51.75
2022-12-03T03:18:40.435Z,51.84
2022-12-03T03:21:14.158Z,51.23
2022-12-03T03:23:44.497Z,51.07
2022-12-03T03:26:17.473Z,51.02
2022-12-03T03:28:52.979Z,50.83
2022-12-03T03:31:24.787Z,51.50
2022-12-03T03:33:58.134Z,51.99
2022-12-03T03:36:28.940Z,51.56
2022-12-03T03:38:59.315Z,50.68
2022-12-03T03:41:31.065Z,50.38
2022-12-03T03:44:01.752Z,50.27
2022-12-03T03:46:34.474Z,50.00
2022-12-03T03:49:06.127Z,49.46
2022-12-03T03:51:37.615Z,48.99
2022-12-03T03:54:09.346Z,49.13
2022-12-03T03:56:40.238Z,49.08
2022-12-03T03:59:10.958Z,49.27
2022-12-03T04:01:41.727Z,49.43
2022-12-03T04:04:22.513Z,49.58
2022-12-03T04:06:54.580Z,49.90
2022-12-03T04:09:25.468Z,50.36
2022-12-03T04:12:13.795Z,49.91
2022-12-03T04:14:44.346Z,49.55
2022-12-03T04:17:15.160Z,49.64
2022-12-03T04:19:45.755Z,49.49
2022-12-03T04:22:34.729Z,49.51
2022-12-03T04:25:26.639Z,49.12
2022-12-03T04:28:15.803Z,49.08
2022-12-03T04:30:46.412Z,49.52
2022-12-03T04:33:36.013Z,49.55
2022-12-03T04:36:06.863Z,49.61
2022-12-03T04:38:38.411Z,49.75
2022-12-03T04:41:09.244Z,49.93
2022-12-03T04:43:59.343Z,49.63
2022-12-03T04:46:30.224Z,49.06
2022-12-03T04:49:01.143Z,49.04
2022-12-03T04:51:31.439Z,48.90
2022-12-03T04:54:02.130Z,48.80
2022-12-03T04:56:32.767Z,49.18
2022-12-03T04:59:03.631Z,48.84
2022-12-03T05:01:34.860Z,48.50
2022-12-03T05:04:06.199Z,47.87
2022-12-03T05:06:37.863Z,47.96
2022-12-03T05:09:09.720Z,48.26
2022-12-03T05:11:41.169Z,48.35
2022-12-03T05:14:12.449Z,47.87
2022-12-03T05:16:42.883Z,47.90
2022-12-03T05:19:15.461Z,48.02
2022-12-03T05:21:46.093Z,48.19
2022-12-03T05:24:17.729Z,47.27
2022-12-03T05:26:51.533Z,47.18
2022-12-03T05:29:22.033Z,47.32
2022-12-03T05:31:53.039Z,47.17
2022-12-03T05:34:23.593Z,46.66
2022-12-03T05:36:54.454Z,46.93
2022-12-03T05:39:24.714Z,46.82
2022-12-03T05:42:13.585Z,46.23
2022-12-03T05:44:43.854Z,46.47
2022-12-03T05:47:14.499Z,46.31
2022-12-03T05:49:44.766Z,46.27
2022-12-03T05:52:15.781Z,45.93
2022-12-03T05:54:46.411Z,46.08
2022-12-03T05:57:16.591Z,46.15
2022-12-03T05:59:47.773Z,46.08
2022-12-03T06:02:18.567Z,45.83
2022-12-03T06:04:49.734Z,45.83
2022-12-03T06:07:22.974Z,46.19
2022-12-03T06:09:53.556Z,45.48
2022-12-03T06:12:24.140Z,45.73
2022-12-03T06:14:58.472Z,45.45
2022-12-03T06:17:29.101Z,45.66
2022-12-03T06:19:59.825Z,45.01
2022-12-03T06:22:30.208Z,44.67
2022-12-03T06:25:05.070Z,44.60
2022-12-03T06:27:40.033Z,44.50
2022-12-03T06:30:14.936Z,44.30
2022-12-03T06:32:45.896Z,44.66
2022-12-03T06:35:16.995Z,44.51
2022-12-03T06:37:50.390Z,44.38
2022-12-03T06:40:21.382Z,44.26
2022-12-03T06:42:55.244Z,44.33
2022-12-03T06:45:25.615Z,44.30
2022-12-03T06:47:56.155Z,44.22
2022-12-03T06:50:26.998Z,44.49
2022-12-03T06:52:57.568Z,44.29
2022-12-03T06:55:28.129Z,44.68
2022-12-03T06:57:58.950Z,45.01
2022-12-03T07:00:29.995Z,45.04
2022-12-03T07:03:03.541Z,45.25
2022-12-03T07:05:34.184Z,45.88
2022-12-03T07:08:05.191Z,45.49
2022-12-03T07:10:35.753Z,45.97
2022-12-03T07:13:06.538Z,46.22
2022-12-03T07:15:36.807Z,46.11
2022-12-03T07:18:07.448Z,46.06
2022-12-03T07:20:38.459Z,46.16
2022-12-03T07:23:09.333Z,46.29
2022-12-03T07:25:39.899Z,46.62
2022-12-03T07:28:10.286Z,46.98
2022-12-03T07:30:40.540Z,47.33
2022-12-03T07:33:11.321Z,46.95
2022-12-03T07:35:41.672Z,47.20
2022-12-03T07:38:12.557Z,47.39
2022-12-03T07:40:44.016Z,47.75
2022-12-03T07:43:14.656Z,48.12
2022-12-03T07:45:45.256Z,48.49
2022-12-03T07:48:19.738Z,48.60
2022-12-03T07:50:50.255Z,48.77
2022-12-03T07:53:20.845Z,49.85
2022-12-03T07:55:51.364Z,49.75
2022-12-03T07:58:21.891Z,50.30
2022-12-03T08:00:52.318Z,50.33
2022-12-03T08:03:23.279Z,50.03
2022-12-03T08:05:54.171Z,49.96
2022-12-03T08:08:25.001Z,49.71
2022-12-03T08:10:55.277Z,50.26
2022-12-03T08:13:25.983Z,50.92
2022-12-03T08:16:04.709Z,51.24
2022-12-03T08:18:35.246Z,51.09
2022-12-03T08:21:10.642Z,51.22
2022-12-03T08:23:41.876Z,51.25
2022-12-03T08:26:34.411Z,51.41
2022-12-03T08:29:13.295Z,51.31
2022-12-03T08:31:50.072Z,50.96
2022-12-03T08:34:22.965Z,51.20
2022-12-03T08:37:23.694Z,51.29
2022-12-03T08:39:56.398Z,51.12
2022-12-03T08:42:43.163Z,51.13
2022-12-03T08:45:25.999Z,51.50
2022-12-03T08:47:59.974Z,51.29
2022-12-03T08:50:37.992Z,51.69
2022-12-03T08:53:31.407Z,51.73
2022-12-03T08:56:05.109Z,52.11
2022-12-03T08:58:40.304Z,52.17
2022-12-03T09:01:14.430Z,52.57
2022-12-03T09:03:56.477Z,52.43
2022-12-03T09:06:27.318Z,52.37
2022-12-03T09:09:01.132Z,52.16
2022-12-03T09:11:34.353Z,52.24
2022-12-03T09:14:05.552Z,52.53
2022-12-03T09:16:36.495Z,52.75
2022-12-03T09:19:07.536Z,52.59
2022-12-03T09:21:38.398Z,53.15
2022-12-03T09:24:08.909Z,53.17
2022-12-03T09:26:39.764Z,53.19
2022-12-03T09:29:12.480Z,53.35
2022-12-03T09:31:43.449Z,53.57
2022-12-03T09:34:13.877Z,53.90
2022-12-03T09:36:44.362Z,53.96
2022-12-03T09:39:15.330Z,54.17
2022-12-03T09:41:46.405Z,54.39
2022-12-03T09:44:18.242Z,54.43
2022-12-03T09:46:49.601Z,54.50
2022-12-03T09:49:21.126Z,54.54
2022-12-03T09:51:51.754Z,55.36
2022-12-03T09:54:25.224Z,55.33
2022-12-03T09:57:00.640Z,55.57
2022-12-03T09:59:35.740Z,56.10
2022-12-03T10:02:21.228Z,56.18
2022-12-03T10:04:52.219Z,55.96
2022-12-03T10:07:24.967Z,56.17
2022-12-03T10:09:55.928Z,56.37
2022-12-03T10:12:26.874Z,56.55
2022-12-03T10:14:57.696Z,56.84
2022-12-03T10:17:29.837Z,57.03
2022-12-03T10:20:00.779Z,57.33
2022-12-03T10:22:37.855Z,57.62
2022-12-03T10:25:13.450Z,58.25
2022-12-03T10:27:44.335Z,58.30
2022-12-03T10:30:24.270Z,58.50
2022-12-03T10:32:55.043Z,58.42
2022-12-03T10:35:28.586Z,58.14
2022-12-03T10:38:01.960Z,58.13
2022-12-03T10:40:37.829Z,58.45
2022-12-03T10:43:20.674Z,58.61
2022-12-03T10:46:12.945Z,58.74
2022-12-03T10:48:43.847Z,58.65
2022-12-03T10:51:24.034Z,59.07
2022-12-03T10:53:55.389Z,58.77
2022-12-03T10:56:28.311Z,59.18
2022-12-03T10:58:59.626Z,59.56
2022-12-03T11:01:32.885Z,59.35
2022-12-03T11:04:06.303Z,59.69
2022-12-03T11:06:37.401Z,59.42
2022-12-03T11:09:18.400Z,59.58
2022-12-03T11:11:51.397Z,59.32
2022-12-03T11:14:54.921Z,59.67
2022-12-03T11:17:46.905Z,59.52
2022-12-03T11:20:26.782Z,59.68
2022-12-03T11:22:58.865Z,59.79
2022-12-03T11:25:29.705Z,60.04
2022-12-03T11:28:15.136Z,60.09
2022-12-03T11:30:54.562Z,60.42
2022-12-03T11:33:36.494Z,60.22
2022-12-03T11:36:07.292Z,60.32
2022-12-03T11:38:52.420Z,60.53
2022-12-03T11:41:25.552Z,60.50
2022-12-03T11:43:58.745Z,60.23
2022-12-03T11:46:42.524Z,60.62
2022-12-03T11:49:36.395Z,60.44
2022-12-03T11:52:33.926Z,60.78
2022-12-03T11:55:19.124Z,61.00
2022-12-03T11:57:49.608Z,61.08
2022-12-03T12:00:23.074Z,61.03
2022-12-03T12:02:56.082Z,60.42
2022-12-03T12:05:37.805Z,60.21
2022-12-03T12:08:20.016Z,61.09
2022-12-03T12:10:51.192Z,60.19
2022-12-03T12:13:36.776Z,59.97
2022-12-03T12:16:08.797Z,59.97
2022-12-03T12:18:54.698Z,60.07
2022-12-03T12:21:50.938Z,60.28
2022-12-03T12:24:30.917Z,59.82
2022-12-03T12:27:11.196Z,59.63
2022-12-03T12:29:43.132Z,59.81
2022-12-03T12:32:18.887Z,60.08
2022-12-03T12:34:51.695Z,59.94
2022-12-03T12:37:33.870Z,59.53
2022-12-03T12:40:18.618Z,59.74
2022-12-03T12:43:21.880Z,60.14
2022-12-03T12:46:13.683Z,59.70
2022-12-03T12:48:55.237Z,59.67
2022-12-03T12:51:28.977Z,59.77
2022-12-03T12:53:59.669Z,59.68
2022-12-03T12:56:33.772Z,59.71
2022-12-03T12:59:21.654Z,59.69
2022-12-03T13:01:53.463Z,59.56
2022-12-03T13:04:28.122Z,59.29
2022-12-03T13:06:58.832Z,59.35
2022-12-03T13:09:29.315Z,59.39
2022-12-03T13:12:01.753Z,59.52
2022-12-03T13:14:37.894Z,59.25
2022-12-03T13:17:17.623Z,59.82
2022-12-03T13:19:53.898Z,59.05
2022-12-03T13:22:29.447Z,59.20
2022-12-03T13:25:04.053Z,59.15
2022-12-03T13:27:34.319Z,59.15
2022-12-03T13:30:25.024Z,59.19
2022-12-03T13:32:56.103Z,59.51
2022-12-03T13:35:36.275Z,59.81
2022-12-03T13:38:18.309Z,59.66
2022-12-03T13:41:30.182Z,59.77
2022-12-03T13:44:01.783Z,59.63
2022-12-03T13:46:37.558Z,59.94
2022-12-03T13:49:22.189Z,60.37
2022-12-03T13:51:54.047Z,60.38
2022-12-03T13:54:27.374Z,60.46
2022-12-03T13:56:57.892Z,60.52
2022-12-03T13:59:29.664Z,61.05
2022-12-03T14:02:00.910Z,60.89
2022-12-03T14:04:31.358Z,60.74
2022-12-03T14:07:02.178Z,60.83
2022-12-03T14:09:32.474Z,60.71
2022-12-03T14:12:21.262Z,61.17
2022-12-03T14:14:53.096Z,61.20
2022-12-03T14:17:32.018Z,61.42
2022-12-03T14:20:10.037Z,61.66
2022-12-03T14:22:48.592Z,61.64
2022-12-03T14:25:30.630Z,61.97
2022-12-03T14:28:10.949Z,62.03
2022-12-03T14:30:41.197Z,62.38
2022-12-03T14:35:58.466Z,62.92
2022-12-03T14:38:31.453Z,63.17
2022-12-03T14:41:01.943Z,62.97
2022-12-03T14:43:35.625Z,63.22
2022-12-03T14:46:15.983Z,63.47
2022-12-03T14:48:56.179Z,63.41
2022-12-03T14:51:28.145Z,63.64
2022-12-03T14:53:58.971Z,63.67
2022-12-03T14:56:36.156Z,64.03
2022-12-03T14:59:08.395Z,63.99
2022-12-03T15:01:40.117Z,64.34
2022-12-03T15:04:26.709Z,64.45
2022-12-03T15:06:57.295Z,64.75
2022-12-03T15:09:30.576Z,64.49
2022-12-03T15:12:17.331Z,64.50
2022-12-03T15:14:54.202Z,64.36
2022-12-03T15:17:31.758Z,64.38
2022-12-03T15:20:03.332Z,64.35
2022-12-03T15:22:33.899Z,64.51
2022-12-03T15:25:04.387Z,64.59
2022-12-03T15:27:35.339Z,64.51
2022-12-03T15:30:07.113Z,64.86
2022-12-03T15:32:42.176Z,64.84
2022-12-03T15:35:44.304Z,64.62
2022-12-03T15:38:23.102Z,64.65
2022-12-03T15:40:57.750Z,64.44
2022-12-03T15:43:28.975Z,64.74
2022-12-03T15:45:59.866Z,64.50
2022-12-03T15:48:30.800Z,64.90
2022-12-03T15:51:01.307Z,64.97
2022-12-03T15:53:31.751Z,64.67
2022-12-03T15:56:03.494Z,64.77
2022-12-03T15:58:34.306Z,64.77
2022-12-03T16:01:05.150Z,65.16
2022-12-03T16:03:41.838Z,65.02
2022-12-03T16:06:35.301Z,65.29
2022-12-03T16:09:40.162Z,64.75
2022-12-03T16:12:10.681Z,64.81
2022-12-03T16:14:46.204Z,65.37
2022-12-03T16:20:09.776Z,64.99
2022-12-03T16:23:16.068Z,65.28
2022-12-03T16:26:00.682Z,65.29
2022-12-03T16:28:38.143Z,65.12
2022-12-03T16:31:08.407Z,65.22
2022-12-03T16:33:43.299Z,65.42
2022-12-03T16:36:36.725Z,65.49
2022-12-03T16:39:56.328Z,65.43
2022-12-03T16:42:28.188Z,65.23
2022-12-03T16:45:42.741Z,65.12
2022-12-03T16:48:13.950Z,65.63
2022-12-03T16:50:44.261Z,65.65
2022-12-03T16:53:15.387Z,66.06
2022-12-03T16:55:54.629Z,66.20
2022-12-03T16:58:25.522Z,66.01
2022-12-03T17:00:58.636Z,66.29
2022-12-03T17:03:33.855Z,66.55
2022-12-03T17:06:05.339Z,66.65
2022-12-03T17:08:35.890Z,66.79
2022-12-03T17:11:09.111Z,67.06
2022-12-03T17:13:39.653Z,67.15
2022-12-03T17:16:10.745Z,67.28
2022-12-03T17:18:41.453Z,67.41
2022-12-03T17:21:12.009Z,67.50
2022-12-03T17:23:42.242Z,67.55
2022-12-03T17:26:12.878Z,67.34
2022-12-03T17:28:43.225Z,67.55
2022-12-03T17:31:14.524Z,67.70
2022-12-03T17:33:44.831Z,67.60
2022-12-03T17:36:17.037Z,67.76
2022-12-03T17:38:47.296Z,67.60
2022-12-03T17:41:17.947Z,68.31
2022-12-03T17:43:49.152Z,67.96
2022-12-03T17:46:19.702Z,68.10
2022-12-03T17:48:50.380Z,68.70
2022-12-03T17:51:22.040Z,68.68
2022-12-03T17:53:52.697Z,68.88
2022-12-03T17:56:26.518Z,68.38
2022-12-03T17:58:58.078Z,68.88
2022-12-03T18:01:28.770Z,68.89
2022-12-03T18:04:00.006Z,68.82
2022-12-03T18:06:30.282Z,68.87
2022-12-03T18:09:01.596Z,68.97
2022-12-03T18:11:32.684Z,69.32
2022-12-03T18:14:03.378Z,69.15
2022-12-03T18:16:33.853Z,69.48
2022-12-03T18:19:06.582Z,69.24
2022-12-03T18:21:37.285Z,69.05
2022-12-03T18:24:08.137Z,69.41
2022-12-03T18:26:38.915Z,69.19
2022-12-03T18:29:11.726Z,69.35
2022-12-03T18:31:42.350Z,69.41
2022-12-03T18:34:12.979Z,69.82
2022-12-03T18:36:43.880Z,69.85
2022-12-03T18:39:27.809Z,70.28
2022-12-03T18:41:59.188Z,70.65
2022-12-03T18:44:30.191Z,71.09
2022-12-03T18:47:01.959Z,71.15
2022-12-03T18:49:32.421Z,70.80
2022-12-03T18:52:03.157Z,71.27
2022-12-03T18:54:33.700Z,71.52
2022-12-03T18:57:04.085Z,71.57
2022-12-03T18:59:34.538Z,71.54
2022-12-03T19:02:05.858Z,71.61
2022-12-03T19:04:36.071Z,71.45
2022-12-03T19:07:06.659Z,71.90
2022-12-03T19:09:37.192Z,72.33
2022-12-03T19:12:14.367Z,72.03
2022-12-03T19:14:45.960Z,72.23
2022-12-03T19:17:16.421Z,72.21
2022-12-03T19:19:49.191Z,72.35
2022-12-03T19:22:19.917Z,72.31
2022-12-03T19:24:50.239Z,72.22
2022-12-03T19:27:20.606Z,72.34
2022-12-03T19:29:52.249Z,72.19
2022-12-03T19:32:22.698Z,72.24
2022-12-03T19:34:53.279Z,72.39
2022-12-03T19:37:23.930Z,72.60
2022-12-03T19:39:55.012Z,72.31
2022-12-03T19:42:25.524Z,72.46
2022-12-03T19:44:55.969Z,72.80
2022-12-03T19:47:26.634Z,72.30
2022-12-03T19:49:57.319Z,72.18
2022-12-03T19:52:28.927Z,72.44
2022-12-03T19:54:59.473Z,72.33
2022-12-03T19:57:30.044Z,72.46
2022-12-03T20:00:00.844Z,72.75
2022-12-03T20:02:32.286Z,72.70
2022-12-03T20:05:02.674Z,72.54
2022-12-03T20:07:32.942Z,73.09
2022-12-03T20:10:04.065Z,73.07
2022-12-03T20:12:34.767Z,73.15
2022-12-03T20:15:06.803Z,72.60
2022-12-03T20:17:40.633Z,72.56
2022-12-03T20:20:11.557Z,72.43
2022-12-03T20:22:44.970Z,72.49
2022-12-03T20:25:16.006Z,72.90
2022-12-03T20:27:49.312Z,72.53
2022-12-03T20:30:20.253Z,72.88
2022-12-03T20:32:53.056Z,72.39
2022-12-03T20:35:24.144Z,72.69
2022-12-03T20:37:54.746Z,72.40
2022-12-03T20:40:27.432Z,72.51
2022-12-03T20:42:57.847Z,72.54
2022-12-03T20:45:29.371Z,72.45
2022-12-03T20:47:59.731Z,72.11
2022-12-03T20:50:30.559Z,72.06
2022-12-03T20:53:23.319Z,72.30
2022-12-03T20:56:01.254Z,72.54
2022-12-03T20:58:32.461Z,72.54
2022-12-03T21:01:16.214Z,72.68
2022-12-03T21:03:47.928Z,72.55
2022-12-03T21:06:19.643Z,72.94
2022-12-03T21:08:50.459Z,72.70
2022-12-03T21:11:26.698Z,72.63
2022-12-03T21:13:57.761Z,72.89
2022-12-03T21:19:23.452Z,72.85
2022-12-03T21:21:54.759Z,72.90
2022-12-03T21:24:25.230Z,72.81
2022-12-03T21:26:56.159Z,72.86
2022-12-03T21:29:27.208Z,73.36
2022-12-03T21:31:57.784Z,73.39
2022-12-03T21:34:35.522Z,73.40
2022-12-03T21:37:06.709Z,72.99
2022-12-03T21:39:37.498Z,73.78
2022-12-03T21:42:19.243Z,73.46
2022-12-03T21:44:59.577Z,73.62
2022-12-03T21:47:36.385Z,73.55
2022-12-03T21:50:09.417Z,73.56
2022-12-03T21:52:40.301Z,74.10
2022-12-03T21:55:11.320Z,74.32
2022-12-03T21:57:43.742Z,74.36
2022-12-03T22:00:17.591Z,74.34
2022-12-03T22:02:48.311Z,74.14
2022-12-03T22:05:18.937Z,74.10
2022-12-03T22:07:49.639Z,73.91
2022-12-03T22:10:20.046Z,74.17
2022-12-03T22:12:50.341Z,74.11
2022-12-03T22:15:20.859Z,74.22
2022-12-03T22:17:51.523Z,74.15
2022-12-03T22:20:22.353Z,74.15
2022-12-03T22:22:53.390Z,74.31
2022-12-03T22:25:23.972Z,74.42
2022-12-03T22:27:54.455Z,74.43
2022-12-03T22:30:24.981Z,74.67
2022-12-03T22:32:58.305Z,74.81
2022-12-03T22:35:29.434Z,75.35
2022-12-03T22:38:00.006Z,74.91
2022-12-03T22:40:30.992Z,75.26
2022-12-03T22:43:01.902Z,75.10
2022-12-03T22:45:32.450Z,75.16
2022-12-03T22:48:04.062Z,75.24
2022-12-03T22:50:34.586Z,75.54
2022-12-03T22:53:05.175Z,75.83
2022-12-03T22:55:35.820Z,75.70
2022-12-03T22:58:06.640Z,75.43
2022-12-03T23:00:39.504Z,75.38
2022-12-03T23:03:10.626Z,75.50
2022-12-03T23:05:42.707Z,75.46
2022-12-03T23:08:15.908Z,75.59
2022-12-03T23:10:48.633Z,75.83
2022-12-03T23:13:20.167Z,75.56
2022-12-03T23:15:54.134Z,75.46
2022-12-03T23:18:24.780Z,75.30
2022-12-03T23:20:57.484Z,75.85
2022-12-03T23:23:29.434Z,75.51
2022-12-03T23:26:08.481Z,75.35
2022-12-03T23:28:41.995Z,75.40
2022-12-03T23:31:22.150Z,75.58
2022-12-03T23:33:53.675Z,75.36
2022-12-03T23:36:25.847Z,74.98
2022-12-03T23:38:56.761Z,74.70
2022-12-03T23:41:27.383Z,74.69
2022-12-03T23:43:58.670Z,74.51
2022-12-03T23:46:30.299Z,74.82
2022-12-03T23:49:01.143Z,74.92
2022-12-03T23:51:31.618Z,75.02
2022-12-03T23:54:01.903Z,75.11
2022-12-03T23:56:32.819Z,75.10
2022-12-03T23:59:05.250Z,75.44
